createdAt,value
2018-12-30T00:00:08.847Z,72.40
2018-12-30T00:02:37.999Z,72.40
2018-12-30T00:05:07.408Z,72.40
2018-12-30T00:07:36.936Z,72.50
2018-12-30T00:10:06.506Z,72.60
2018-12-30T00:12:35.673Z,72.50
2018-12-30T00:15:05.013Z,72.40
2018-12-30T00:17:34.165Z,72.40
2018-12-30T00:20:03.850Z,72.40
2018-12-30T00:22:33.000Z,72.40
2018-12-30T00:25:02.146Z,72.50
2018-12-30T00:27:31.282Z,72.60
2018-12-30T00:30:00.412Z,72.40
2018-12-30T00:32:29.574Z,72.60
2018-12-30T00:34:58.732Z,72.50
2018-12-30T00:37:27.893Z,72.50
2018-12-30T00:39:57.023Z,72.40
2018-12-30T00:42:26.153Z,72.50
2018-12-30T00:44:55.585Z,72.40
2018-12-30T00:47:24.716Z,72.40
2018-12-30T00:49:53.861Z,72.40
2018-12-30T00:52:23.002Z,72.50
2018-12-30T00:54:52.147Z,72.60
2018-12-30T00:57:21.282Z,72.60
2018-12-30T00:59:50.443Z,72.60
2018-12-30T01:02:19.572Z,72.50
2018-12-30T01:04:48.716Z,72.50
2018-12-30T01:07:17.840Z,72.50
2018-12-30T01:09:46.982Z,72.50
2018-12-30T01:12:16.371Z,72.60
2018-12-30T01:14:45.522Z,72.60
2018-12-30T01:17:14.659Z,72.50
2018-12-30T01:19:43.803Z,73.00
2018-12-30T01:22:12.938Z,72.50
2018-12-30T01:24:42.084Z,72.60
2018-12-30T01:27:11.221Z,72.60
2018-12-30T01:29:40.359Z,72.70
2018-12-30T01:32:09.503Z,72.70
2018-12-30T01:34:38.653Z,72.60
2018-12-30T01:37:07.796Z,72.70
2018-12-30T01:39:36.944Z,72.60
2018-12-30T01:42:06.119Z,73.40
2018-12-30T01:44:35.281Z,72.60
2018-12-30T01:47:04.422Z,72.60
2018-12-30T01:49:33.562Z,72.40
2018-12-30T01:52:02.711Z,72.50
2018-12-30T01:54:31.866Z,72.40
2018-12-30T01:57:00.990Z,72.60
2018-12-30T01:59:30.136Z,72.50
2018-12-30T02:01:59.262Z,72.50
2018-12-30T02:04:28.699Z,72.60
2018-12-30T02:06:57.822Z,72.50
2018-12-30T02:09:26.970Z,72.60
2018-12-30T02:11:56.099Z,72.60
2018-12-30T02:14:25.237Z,72.60
2018-12-30T02:16:54.751Z,72.60
2018-12-30T02:19:23.888Z,72.60
2018-12-30T02:21:53.047Z,73.00
2018-12-30T02:24:25.156Z,72.60
2018-12-30T02:26:54.303Z,72.60
2018-12-30T02:29:23.436Z,72.70
2018-12-30T02:31:52.578Z,72.60
2018-12-30T02:34:21.721Z,72.60
2018-12-30T02:36:50.849Z,72.60
2018-12-30T02:39:19.988Z,72.70
2018-12-30T02:41:49.141Z,72.70
2018-12-30T02:44:18.289Z,72.60
2018-12-30T02:46:47.442Z,72.70
2018-12-30T02:49:16.584Z,72.70
2018-12-30T02:51:50.292Z,72.70
2018-12-30T02:54:16.583Z,72.70
2018-12-30T02:56:45.922Z,72.60
2018-12-30T02:59:15.105Z,72.60
2018-12-30T03:01:44.260Z,72.70
2018-12-30T03:04:13.766Z,72.70
2018-12-30T03:06:42.919Z,72.70
2018-12-30T03:09:12.056Z,72.70
2018-12-30T03:11:41.202Z,72.50
2018-12-30T03:14:10.326Z,72.60
2018-12-30T03:16:39.481Z,72.60
2018-12-30T03:19:08.611Z,72.70
2018-12-30T03:21:37.758Z,72.60
2018-12-30T03:24:06.884Z,72.60
2018-12-30T03:26:36.041Z,72.60
2018-12-30T03:29:05.176Z,72.60
2018-12-30T03:31:34.325Z,72.60
2018-12-30T03:34:03.453Z,72.60
2018-12-30T03:36:32.615Z,72.60
2018-12-30T03:39:01.851Z,72.60
2018-12-30T03:41:30.996Z,72.60
2018-12-30T03:44:00.119Z,72.50
2018-12-30T03:46:29.254Z,72.50
2018-12-30T03:48:58.403Z,72.50
2018-12-30T03:51:27.539Z,72.50
2018-12-30T03:53:56.679Z,72.50
2018-12-30T03:56:25.830Z,72.50
2018-12-30T03:58:54.968Z,72.60
2018-12-30T04:01:24.110Z,72.60
2018-12-30T04:03:53.252Z,72.60
2018-12-30T04:06:22.424Z,72.60
2018-12-30T04:08:51.563Z,72.60
2018-12-30T04:11:20.713Z,72.60
2018-12-30T04:13:49.849Z,72.60
2018-12-30T04:16:18.996Z,72.60
2018-12-30T04:18:48.123Z,72.60
2018-12-30T04:21:17.259Z,72.60
2018-12-30T04:23:46.406Z,72.40
2018-12-30T04:26:15.526Z,72.40
2018-12-30T04:28:44.668Z,72.50
2018-12-30T04:31:13.797Z,72.50
2018-12-30T04:33:42.957Z,72.40
2018-12-30T04:36:12.087Z,72.40
2018-12-30T04:38:41.242Z,72.40
2018-12-30T04:41:10.372Z,72.40
2018-12-30T04:43:39.534Z,72.50
2018-12-30T04:46:08.664Z,72.40
2018-12-30T04:48:37.829Z,72.40
2018-12-30T04:51:06.967Z,72.40
2018-12-30T04:53:36.111Z,72.40
2018-12-30T04:56:05.244Z,72.40
2018-12-30T04:58:34.459Z,72.40
2018-12-30T05:01:03.615Z,72.40
2018-12-30T05:03:32.758Z,72.30
2018-12-30T05:06:01.896Z,72.30
2018-12-30T05:08:31.050Z,72.30
2018-12-30T05:11:00.173Z,72.30
2018-12-30T05:13:29.338Z,72.30
2018-12-30T05:15:58.478Z,72.40
2018-12-30T05:18:27.635Z,72.20
2018-12-30T05:20:56.767Z,72.20
2018-12-30T05:23:25.916Z,72.20
2018-12-30T05:25:55.055Z,72.30
2018-12-30T05:28:24.199Z,72.20
2018-12-30T05:30:53.328Z,72.30
2018-12-30T05:33:22.481Z,72.20
2018-12-30T05:35:51.615Z,72.20
2018-12-30T05:38:20.764Z,72.10
2018-12-30T05:40:49.897Z,72.90
2018-12-30T05:43:19.052Z,72.10
2018-12-30T05:45:48.185Z,72.10
2018-12-30T05:48:17.337Z,72.10
2018-12-30T05:50:46.452Z,72.10
2018-12-30T05:53:15.600Z,72.10
2018-12-30T05:55:44.760Z,72.10
2018-12-30T05:58:13.909Z,72.10
2018-12-30T06:00:43.042Z,72.00
2018-12-30T06:03:12.184Z,72.10
2018-12-30T06:05:41.314Z,72.00
2018-12-30T06:08:10.470Z,71.90
2018-12-30T06:10:39.610Z,71.90
2018-12-30T06:13:08.757Z,71.90
2018-12-30T06:15:37.910Z,71.90
2018-12-30T06:18:07.057Z,71.90
2018-12-30T06:20:36.186Z,71.90
2018-12-30T06:23:05.343Z,71.80
2018-12-30T06:25:34.496Z,71.90
2018-12-30T06:28:03.907Z,71.80
2018-12-30T06:30:33.026Z,71.80
2018-12-30T06:33:02.182Z,71.70
2018-12-30T06:35:31.296Z,71.80
2018-12-30T06:38:00.429Z,71.80
2018-12-30T06:40:29.558Z,71.70
2018-12-30T06:42:58.697Z,71.80
2018-12-30T06:45:27.830Z,71.80
2018-12-30T06:47:56.998Z,71.70
2018-12-30T06:50:26.118Z,71.70
2018-12-30T06:52:57.785Z,71.70
2018-12-30T06:55:26.144Z,71.60
2018-12-30T06:57:55.333Z,71.60
2018-12-30T07:00:24.463Z,71.60
2018-12-30T07:02:53.632Z,71.60
2018-12-30T07:05:22.767Z,71.60
2018-12-30T07:07:51.917Z,71.60
2018-12-30T07:10:21.054Z,71.70
2018-12-30T07:12:50.203Z,71.60
2018-12-30T07:15:19.325Z,71.70
2018-12-30T07:17:48.462Z,71.60
2018-12-30T07:20:17.620Z,71.60
2018-12-30T07:22:46.746Z,71.50
2018-12-30T07:25:15.895Z,71.60
2018-12-30T07:27:45.028Z,71.50
2018-12-30T07:30:14.182Z,71.50
2018-12-30T07:32:43.380Z,71.40
2018-12-30T07:35:12.526Z,71.50
2018-12-30T07:37:41.658Z,71.50
2018-12-30T07:40:10.800Z,71.40
2018-12-30T07:42:39.944Z,71.40
2018-12-30T07:45:09.086Z,71.30
2018-12-30T07:47:38.210Z,71.30
2018-12-30T07:50:08.119Z,71.30
2018-12-30T07:52:37.255Z,71.40
2018-12-30T07:55:06.399Z,71.40
2018-12-30T07:57:35.526Z,71.30
2018-12-30T08:00:07.073Z,71.40
2018-12-30T08:02:36.207Z,71.40
2018-12-30T08:05:05.621Z,71.40
2018-12-30T08:07:34.758Z,71.40
2018-12-30T08:10:03.900Z,71.40
2018-12-30T08:12:33.046Z,71.40
2018-12-30T08:15:02.187Z,71.30
2018-12-30T08:17:31.325Z,71.30
2018-12-30T08:20:00.482Z,71.30
2018-12-30T08:22:29.616Z,71.30
2018-12-30T08:24:58.766Z,71.30
2018-12-30T08:27:27.891Z,71.30
2018-12-30T08:29:57.125Z,71.40
2018-12-30T08:32:26.258Z,71.40
2018-12-30T08:34:55.401Z,71.30
2018-12-30T08:37:24.525Z,71.30
2018-12-30T08:39:53.689Z,71.30
2018-12-30T08:42:22.813Z,71.30
2018-12-30T08:44:51.978Z,71.20
2018-12-30T08:47:21.111Z,71.30
2018-12-30T08:49:50.274Z,71.10
2018-12-30T08:52:19.407Z,71.30
2018-12-30T08:54:48.565Z,71.20
2018-12-30T08:57:17.684Z,71.30
2018-12-30T08:59:46.848Z,71.20
2018-12-30T09:02:15.977Z,71.20
2018-12-30T09:04:45.115Z,71.20
2018-12-30T09:07:14.248Z,71.20
2018-12-30T09:09:43.574Z,71.00
2018-12-30T09:12:12.711Z,71.00
2018-12-30T09:14:41.871Z,71.30
2018-12-30T09:17:11.003Z,71.30
2018-12-30T09:19:40.149Z,71.90
2018-12-30T09:22:09.286Z,71.30
2018-12-30T09:24:38.436Z,71.30
2018-12-30T09:27:07.565Z,71.20
2018-12-30T09:29:36.715Z,71.10
2018-12-30T09:32:05.856Z,71.30
2018-12-30T09:34:35.012Z,71.20
2018-12-30T09:37:04.142Z,71.40
2018-12-30T09:39:33.281Z,71.10
2018-12-30T09:42:02.435Z,71.10
2018-12-30T09:44:31.569Z,71.00
2018-12-30T09:47:00.773Z,71.80
2018-12-30T09:49:29.941Z,70.90
2018-12-30T09:51:59.081Z,71.70
2018-12-30T09:54:28.202Z,71.00
2018-12-30T09:56:57.340Z,71.00
2018-12-30T09:59:26.484Z,71.10
2018-12-30T10:01:55.664Z,71.10
2018-12-30T10:04:24.792Z,71.00
2018-12-30T10:06:53.933Z,71.10
2018-12-30T10:09:23.063Z,71.10
2018-12-30T10:11:52.203Z,71.00
2018-12-30T10:14:21.325Z,71.10
2018-12-30T10:16:50.465Z,71.10
2018-12-30T10:19:19.583Z,71.00
2018-12-30T10:21:48.728Z,71.10
2018-12-30T10:24:17.858Z,71.00
2018-12-30T10:26:47.012Z,71.10
2018-12-30T10:29:16.148Z,71.10
2018-12-30T10:31:45.287Z,71.10
2018-12-30T10:34:14.412Z,71.00
2018-12-30T10:36:43.562Z,71.10
2018-12-30T10:39:12.703Z,71.00
2018-12-30T10:41:41.853Z,71.00
2018-12-30T10:44:10.983Z,71.00
2018-12-30T10:46:40.124Z,71.00
2018-12-30T10:49:09.265Z,71.00
2018-12-30T10:51:38.408Z,71.00
2018-12-30T10:54:07.542Z,70.90
2018-12-30T10:56:36.685Z,70.90
2018-12-30T10:59:05.816Z,70.80
2018-12-30T11:01:34.970Z,70.70
2018-12-30T11:04:04.092Z,70.80
2018-12-30T11:06:33.256Z,70.80
2018-12-30T11:09:02.392Z,70.90
2018-12-30T11:11:31.536Z,70.90
2018-12-30T11:14:00.673Z,70.80
2018-12-30T11:16:29.818Z,70.80
2018-12-30T11:18:58.950Z,70.80
2018-12-30T11:21:28.086Z,70.90
2018-12-30T11:23:57.215Z,70.80
2018-12-30T11:26:26.372Z,70.70
2018-12-30T11:28:55.499Z,70.70
2018-12-30T11:31:24.641Z,70.60
2018-12-30T11:33:53.787Z,70.70
2018-12-30T11:36:22.919Z,70.60
2018-12-30T11:38:52.065Z,70.60
2018-12-30T11:41:21.214Z,70.60
2018-12-30T11:43:50.362Z,70.50
2018-12-30T11:46:19.506Z,70.60
2018-12-30T11:48:48.647Z,70.50
2018-12-30T11:51:17.797Z,70.60
2018-12-30T11:53:46.940Z,70.60
2018-12-30T11:56:16.092Z,70.60
2018-12-30T11:58:45.221Z,70.60
2018-12-30T12:01:14.371Z,70.60
2018-12-30T12:03:43.513Z,70.60
2018-12-30T12:06:12.650Z,70.70
2018-12-30T12:08:41.788Z,70.40
2018-12-30T12:11:10.933Z,70.50
2018-12-30T12:13:40.074Z,70.40
2018-12-30T12:16:09.213Z,70.40
2018-12-30T12:18:38.363Z,70.30
2018-12-30T12:21:07.492Z,70.30
2018-12-30T12:23:36.637Z,70.40
2018-12-30T12:26:05.771Z,70.40
2018-12-30T12:28:34.914Z,70.40
2018-12-30T12:31:04.046Z,70.40
2018-12-30T12:33:33.200Z,70.40
2018-12-30T12:36:02.333Z,70.40
2018-12-30T12:38:31.488Z,70.30
2018-12-30T12:41:00.612Z,70.40
2018-12-30T12:43:29.757Z,70.40
2018-12-30T12:45:58.891Z,70.30
2018-12-30T12:48:28.046Z,70.30
2018-12-30T12:50:57.173Z,70.40
2018-12-30T12:53:26.310Z,70.40
2018-12-30T12:55:55.441Z,70.30
2018-12-30T12:58:24.590Z,70.20
2018-12-30T13:00:53.717Z,70.30
2018-12-30T13:03:22.858Z,70.20
2018-12-30T13:05:51.987Z,70.30
2018-12-30T13:08:21.157Z,70.10
2018-12-30T13:10:50.276Z,70.10
2018-12-30T13:13:19.416Z,70.20
2018-12-30T13:15:48.553Z,70.10
2018-12-30T13:18:17.705Z,70.10
2018-12-30T13:20:46.841Z,70.10
2018-12-30T13:23:16.008Z,70.20
2018-12-30T13:25:45.134Z,70.20
2018-12-30T13:28:14.286Z,70.10
2018-12-30T13:30:43.420Z,70.20
2018-12-30T13:33:12.573Z,70.20
2018-12-30T13:35:43.462Z,70.30
2018-12-30T13:38:12.589Z,70.20
2018-12-30T13:40:41.722Z,70.10
2018-12-30T13:43:10.892Z,70.00
2018-12-30T13:45:40.036Z,70.00
2018-12-30T13:48:09.179Z,69.90
2018-12-30T13:50:38.312Z,70.00
2018-12-30T13:53:07.459Z,70.00
2018-12-30T13:55:36.596Z,69.80
2018-12-30T13:58:05.742Z,69.80
2018-12-30T14:00:35.015Z,69.80
2018-12-30T14:03:04.265Z,69.80
2018-12-30T14:05:33.407Z,69.70
2018-12-30T14:08:02.565Z,69.70
2018-12-30T14:10:31.697Z,69.80
2018-12-30T14:13:01.697Z,69.70
2018-12-30T14:15:30.840Z,70.50
2018-12-30T14:17:59.986Z,69.60
2018-12-30T14:20:29.115Z,69.60
2018-12-30T14:22:58.278Z,69.60
2018-12-30T14:25:27.411Z,69.60
2018-12-30T14:27:56.534Z,69.70
2018-12-30T14:30:25.689Z,69.60
2018-12-30T14:32:54.820Z,69.60
2018-12-30T14:35:23.969Z,69.50
2018-12-30T14:37:53.106Z,69.50
2018-12-30T14:40:22.252Z,69.30
2018-12-30T14:42:51.381Z,69.30
2018-12-30T14:45:20.533Z,69.30
2018-12-30T14:47:49.653Z,69.30
2018-12-30T14:50:18.796Z,69.20
2018-12-30T14:52:47.924Z,69.10
2018-12-30T14:55:17.061Z,69.20
2018-12-30T14:57:46.199Z,69.00
2018-12-30T15:00:15.421Z,69.10
2018-12-30T15:02:44.550Z,69.20
2018-12-30T15:05:13.700Z,69.10
2018-12-30T15:07:42.823Z,69.20
2018-12-30T15:10:11.983Z,69.30
2018-12-30T15:12:41.204Z,69.30
2018-12-30T15:15:10.346Z,69.20
2018-12-30T15:17:39.480Z,69.20
2018-12-30T15:20:08.895Z,69.20
2018-12-30T15:22:38.032Z,69.30
2018-12-30T15:25:11.653Z,69.20
2018-12-30T15:27:38.044Z,69.10
2018-12-30T15:30:09.104Z,69.10
2018-12-30T15:32:38.252Z,69.10
2018-12-30T15:35:07.788Z,69.10
2018-12-30T15:37:36.915Z,69.10
2018-12-30T15:40:06.734Z,69.20
2018-12-30T15:42:35.889Z,69.20
2018-12-30T15:45:06.834Z,69.10
2018-12-30T15:47:36.004Z,69.20
2018-12-30T15:50:07.723Z,69.20
2018-12-30T15:52:36.854Z,69.10
2018-12-30T15:55:06.087Z,69.20
2018-12-30T15:57:35.292Z,69.20
2018-12-30T16:00:06.167Z,69.20
2018-12-30T16:02:35.307Z,69.20
2018-12-30T16:05:04.793Z,69.20
2018-12-30T16:07:33.927Z,69.20
2018-12-30T16:10:03.456Z,69.30
2018-12-30T16:12:32.611Z,69.30
2018-12-30T16:15:01.742Z,69.20
2018-12-30T16:17:30.889Z,69.30
2018-12-30T16:20:00.039Z,69.30
2018-12-30T16:22:29.176Z,69.30
2018-12-30T16:24:58.310Z,69.30
2018-12-30T16:27:27.486Z,69.30
2018-12-30T16:29:56.616Z,69.40
2018-12-30T16:32:25.775Z,69.40
2018-12-30T16:34:54.900Z,69.50
2018-12-30T16:37:24.428Z,69.50
2018-12-30T16:39:53.559Z,69.50
2018-12-30T16:42:22.705Z,69.50
2018-12-30T16:44:51.838Z,69.50
2018-12-30T16:47:20.995Z,69.50
2018-12-30T16:49:50.130Z,69.60
2018-12-30T16:52:19.283Z,69.60
2018-12-30T16:54:48.409Z,69.70
2018-12-30T16:57:17.570Z,69.60
2018-12-30T16:59:46.696Z,69.70
2018-12-30T17:02:15.841Z,69.60
2018-12-30T17:04:44.977Z,69.70
2018-12-30T17:07:14.132Z,69.70
2018-12-30T17:09:43.329Z,69.80
2018-12-30T17:12:12.511Z,69.70
2018-12-30T17:14:41.653Z,69.70
2018-12-30T17:17:10.802Z,69.80
2018-12-30T17:19:39.952Z,69.70
2018-12-30T17:22:09.112Z,69.80
2018-12-30T17:24:38.263Z,69.80
2018-12-30T17:27:07.429Z,69.80
2018-12-30T17:29:36.582Z,69.80
2018-12-30T17:32:05.880Z,69.80
2018-12-30T17:34:35.029Z,69.80
2018-12-30T17:37:04.191Z,70.00
2018-12-30T17:39:33.325Z,70.10
2018-12-30T17:42:02.478Z,70.00
2018-12-30T17:44:31.621Z,70.10
2018-12-30T17:47:00.762Z,70.10
2018-12-30T17:49:29.907Z,70.10
2018-12-30T17:51:59.050Z,70.00
2018-12-30T17:54:28.195Z,70.20
2018-12-30T17:56:57.329Z,70.10
2018-12-30T17:59:26.473Z,70.10
2018-12-30T18:01:55.604Z,70.10
2018-12-30T18:04:24.768Z,70.10
2018-12-30T18:06:53.906Z,70.20
2018-12-30T18:09:23.056Z,70.10
2018-12-30T18:11:52.191Z,70.10
2018-12-30T18:14:21.335Z,70.10
2018-12-30T18:16:50.486Z,70.20
2018-12-30T18:19:19.661Z,70.10
2018-12-30T18:21:48.801Z,70.20
2018-12-30T18:24:17.945Z,70.10
2018-12-30T18:26:47.099Z,70.10
2018-12-30T18:29:16.245Z,70.10
2018-12-30T18:31:45.388Z,70.10
2018-12-30T18:34:14.525Z,70.20
2018-12-30T18:36:43.673Z,70.20
2018-12-30T18:39:12.820Z,70.20
2018-12-30T18:41:41.961Z,70.20
2018-12-30T18:44:11.114Z,70.20
2018-12-30T18:46:40.252Z,70.20
2018-12-30T18:49:09.413Z,70.30
2018-12-30T18:51:38.553Z,70.30
2018-12-30T18:54:07.696Z,70.30
2018-12-30T18:56:36.836Z,70.30
2018-12-30T18:59:05.998Z,70.30
2018-12-30T19:01:35.135Z,70.30
2018-12-30T19:04:04.312Z,70.30
2018-12-30T19:06:33.449Z,70.30
2018-12-30T19:09:02.693Z,70.40
2018-12-30T19:11:31.844Z,70.30
2018-12-30T19:14:00.997Z,70.30
2018-12-30T19:16:30.154Z,70.30
2018-12-30T19:18:59.317Z,70.30
2018-12-30T19:21:28.450Z,70.30
2018-12-30T19:23:57.616Z,70.40
2018-12-30T19:26:26.757Z,70.30
2018-12-30T19:28:55.911Z,70.30
2018-12-30T19:31:25.052Z,70.30
2018-12-30T19:33:54.209Z,70.40
2018-12-30T19:36:23.353Z,70.30
2018-12-30T19:38:52.502Z,70.40
2018-12-30T19:41:21.638Z,70.30
2018-12-30T19:43:50.803Z,70.30
2018-12-30T19:46:19.926Z,70.40
2018-12-30T19:48:49.087Z,70.40
2018-12-30T19:51:18.216Z,70.50
2018-12-30T19:53:47.367Z,70.40
2018-12-30T19:56:21.920Z,70.60
2018-12-30T19:58:47.377Z,70.60
2018-12-30T20:01:16.518Z,70.60
2018-12-30T20:03:45.648Z,70.50
2018-12-30T20:06:14.823Z,70.60
2018-12-30T20:08:43.963Z,70.60
2018-12-30T20:11:13.112Z,70.60
2018-12-30T20:13:42.250Z,70.70
2018-12-30T20:16:11.403Z,70.80
2018-12-30T20:18:40.542Z,70.80
2018-12-30T20:21:09.707Z,70.90
2018-12-30T20:23:38.828Z,70.90
2018-12-30T20:26:08.066Z,70.90
2018-12-30T20:28:37.196Z,71.00
2018-12-30T20:31:06.341Z,71.30
2018-12-30T20:33:35.491Z,71.10
2018-12-30T20:36:04.637Z,71.30
2018-12-30T20:38:33.777Z,71.10
2018-12-30T20:41:02.916Z,71.00
2018-12-30T20:43:32.045Z,71.00
2018-12-30T20:46:01.179Z,71.10
2018-12-30T20:48:30.308Z,71.10
2018-12-30T20:50:59.442Z,71.00
2018-12-30T20:53:28.591Z,70.90
2018-12-30T20:55:57.729Z,71.00
2018-12-30T20:58:26.862Z,71.00
2018-12-30T21:00:56.033Z,71.00
2018-12-30T21:03:25.177Z,71.10
2018-12-30T21:05:54.329Z,71.00
2018-12-30T21:08:23.527Z,71.20
2018-12-30T21:10:52.678Z,71.30
2018-12-30T21:13:21.804Z,71.30
2018-12-30T21:15:50.983Z,71.20
2018-12-30T21:18:20.099Z,71.20
2018-12-30T21:20:49.253Z,71.20
2018-12-30T21:23:18.386Z,71.30
2018-12-30T21:25:47.548Z,71.30
2018-12-30T21:28:16.680Z,71.30
2018-12-30T21:30:45.851Z,71.20
2018-12-30T21:33:14.992Z,71.30
2018-12-30T21:35:44.154Z,71.30
2018-12-30T21:38:13.281Z,71.40
2018-12-30T21:40:42.432Z,71.40
2018-12-30T21:43:11.550Z,71.50
2018-12-30T21:45:40.707Z,71.50
2018-12-30T21:48:09.830Z,71.50
2018-12-30T21:50:38.971Z,71.60
2018-12-30T21:53:08.089Z,71.60
2018-12-30T21:55:37.243Z,71.60
2018-12-30T21:58:06.377Z,71.70
2018-12-30T22:00:35.522Z,71.60
2018-12-30T22:03:04.663Z,71.60
2018-12-30T22:05:33.817Z,71.60
2018-12-30T22:08:02.927Z,71.60
2018-12-30T22:10:32.081Z,71.80
2018-12-30T22:13:01.205Z,71.90
2018-12-30T22:15:30.356Z,71.90
2018-12-30T22:17:59.500Z,71.90
2018-12-30T22:20:28.810Z,72.00
2018-12-30T22:22:57.943Z,71.90
2018-12-30T22:25:27.075Z,72.10
2018-12-30T22:27:56.219Z,72.10
2018-12-30T22:30:25.355Z,72.20
2018-12-30T22:32:54.502Z,72.30
2018-12-30T22:35:23.628Z,72.20
2018-12-30T22:37:52.773Z,72.20
2018-12-30T22:40:21.891Z,72.10
2018-12-30T22:42:51.065Z,72.20
2018-12-30T22:45:20.206Z,72.20
2018-12-30T22:47:49.343Z,72.30
2018-12-30T22:50:18.485Z,72.40
2018-12-30T22:52:48.948Z,72.40
2018-12-30T22:55:18.234Z,72.50
2018-12-30T22:57:47.379Z,72.50
2018-12-30T23:00:26.837Z,72.50
2018-12-30T23:02:55.994Z,72.50
2018-12-30T23:05:25.179Z,72.60
2018-12-30T23:07:54.335Z,72.40
2018-12-30T23:10:23.463Z,72.60
2018-12-30T23:12:52.624Z,72.70
2018-12-30T23:15:21.742Z,72.70
2018-12-30T23:17:50.881Z,72.80
2018-12-30T23:20:20.019Z,72.70
2018-12-30T23:22:49.153Z,72.70
2018-12-30T23:25:18.285Z,72.90
2018-12-30T23:28:06.862Z,72.90
2018-12-30T23:30:36.011Z,72.90
2018-12-30T23:33:05.161Z,72.80
2018-12-30T23:35:34.305Z,72.90
2018-12-30T23:38:03.451Z,72.90
2018-12-30T23:40:32.589Z,72.90
2018-12-30T23:43:01.726Z,72.90
2018-12-30T23:45:30.852Z,72.90
2018-12-30T23:48:00.014Z,73.00
2018-12-30T23:50:29.151Z,72.90
2018-12-30T23:52:58.304Z,72.40
2018-12-30T23:55:27.447Z,73.00
2018-12-30T23:57:56.621Z,73.80
